sensor_id;sensor_type;location;lat;lon;timestamp;temperature;humidity
41437;DHT22;27178;49.460;10.850;2022-09-03T00:02:25;21.20;47.20
41437;DHT22;27178;49.460;10.850;2022-09-03T00:04:59;21.20;47.20
41437;DHT22;27178;49.460;10.850;2022-09-03T00:07:38;21.10;47.40
41437;DHT22;27178;49.460;10.850;2022-09-03T00:10:13;21.10;47.50
41437;DHT22;27178;49.460;10.850;2022-09-03T00:12:43;21.10;47.50
41437;DHT22;27178;49.460;10.850;2022-09-03T00:15:14;21.00;47.40
41437;DHT22;27178;49.460;10.850;2022-09-03T00:17:49;21.00;47.50
41437;DHT22;27178;49.460;10.850;2022-09-03T00:20:23;20.90;47.70
41437;DHT22;27178;49.460;10.850;2022-09-03T00:22:56;20.90;47.60
41437;DHT22;27178;49.460;10.850;2022-09-03T00:25:32;20.90;47.80
41437;DHT22;27178;49.460;10.850;2022-09-03T00:28:05;20.80;47.80
41437;DHT22;27178;49.460;10.850;2022-09-03T00:30:35;20.80;47.80
41437;DHT22;27178;49.460;10.850;2022-09-03T00:33:06;20.70;47.90
41437;DHT22;27178;49.460;10.850;2022-09-03T00:35:40;20.70;48.10
41437;DHT22;27178;49.460;10.850;2022-09-03T00:38:11;20.60;48.20
41437;DHT22;27178;49.460;10.850;2022-09-03T00:40:58;20.60;48.20
41437;DHT22;27178;49.460;10.850;2022-09-03T00:43:38;20.60;48.70
41437;DHT22;27178;49.460;10.850;2022-09-03T00:46:18;20.60;48.70
41437;DHT22;27178;49.460;10.850;2022-09-03T00:48:59;20.60;48.90
41437;DHT22;27178;49.460;10.850;2022-09-03T00:51:36;20.50;48.80
41437;DHT22;27178;49.460;10.850;2022-09-03T00:54:14;20.50;48.70
41437;DHT22;27178;49.460;10.850;2022-09-03T00:56:48;20.40;49.00
41437;DHT22;27178;49.460;10.850;2022-09-03T00:59:27;20.70;49.20
41437;DHT22;27178;49.460;10.850;2022-09-03T01:02:05;20.40;49.20
41437;DHT22;27178;49.460;10.850;2022-09-03T01:04:48;20.30;49.20
41437;DHT22;27178;49.460;10.850;2022-09-03T01:07:30;20.20;49.40
41437;DHT22;27178;49.460;10.850;2022-09-03T01:10:09;20.20;49.50
41437;DHT22;27178;49.460;10.850;2022-09-03T01:12:48;20.20;49.80
41437;DHT22;27178;49.460;10.850;2022-09-03T01:15:26;20.10;49.80
41437;DHT22;27178;49.460;10.850;2022-09-03T01:18:06;20.10;50.00
41437;DHT22;27178;49.460;10.850;2022-09-03T01:20:44;20.10;50.10
41437;DHT22;27178;49.460;10.850;2022-09-03T01:23:33;20.00;50.10
41437;DHT22;27178;49.460;10.850;2022-09-03T01:26:22;20.00;50.40
41437;DHT22;27178;49.460;10.850;2022-09-03T01:29:03;20.00;50.40
41437;DHT22;27178;49.460;10.850;2022-09-03T01:31:45;19.90;50.30
41437;DHT22;27178;49.460;10.850;2022-09-03T01:34:25;19.90;50.30
41437;DHT22;27178;49.460;10.850;2022-09-03T01:37:05;19.90;50.40
41437;DHT22;27178;49.460;10.850;2022-09-03T01:39:42;19.90;50.30
41437;DHT22;27178;49.460;10.850;2022-09-03T01:42:23;19.80;50.30
41437;DHT22;27178;49.460;10.850;2022-09-03T01:48:34;19.80;50.40
41437;DHT22;27178;49.460;10.850;2022-09-03T01:51:11;19.70;50.30
41437;DHT22;27178;49.460;10.850;2022-09-03T01:54:19;19.70;50.40
41437;DHT22;27178;49.460;10.850;2022-09-03T02:00:05;19.60;50.50
41437;DHT22;27178;49.460;10.850;2022-09-03T02:02:33;19.60;50.40
41437;DHT22;27178;49.460;10.850;2022-09-03T02:05:08;19.60;50.60
41437;DHT22;27178;49.460;10.850;2022-09-03T02:11:17;19.60;51.00
41437;DHT22;27178;49.460;10.850;2022-09-03T02:13:48;19.60;50.50
41437;DHT22;27178;49.460;10.850;2022-09-03T02:16:19;19.50;50.70
41437;DHT22;27178;49.460;10.850;2022-09-03T02:18:53;19.50;50.90
41437;DHT22;27178;49.460;10.850;2022-09-03T02:21:27;19.40;51.00
41437;DHT22;27178;49.460;10.850;2022-09-03T02:23:57;19.40;51.30
41437;DHT22;27178;49.460;10.850;2022-09-03T02:26:26;19.40;51.30
41437;DHT22;27178;49.460;10.850;2022-09-03T02:28:55;19.40;51.30
41437;DHT22;27178;49.460;10.850;2022-09-03T02:31:23;19.30;51.40
41437;DHT22;27178;49.460;10.850;2022-09-03T02:33:55;19.30;52.10
41437;DHT22;27178;49.460;10.850;2022-09-03T02:36:29;19.30;51.60
41437;DHT22;27178;49.460;10.850;2022-09-03T02:38:59;19.30;51.70
41437;DHT22;27178;49.460;10.850;2022-09-03T02:41:28;19.20;51.50
41437;DHT22;27178;49.460;10.850;2022-09-03T02:44:00;19.20;51.50
41437;DHT22;27178;49.460;10.850;2022-09-03T02:46:33;19.20;51.70
41437;DHT22;27178;49.460;10.850;2022-09-03T02:49:03;19.20;51.90
41437;DHT22;27178;49.460;10.850;2022-09-03T02:51:37;19.10;51.80
41437;DHT22;27178;49.460;10.850;2022-09-03T02:54:09;19.10;52.10
41437;DHT22;27178;49.460;10.850;2022-09-03T02:56:37;19.10;52.10
41437;DHT22;27178;49.460;10.850;2022-09-03T02:59:07;19.00;52.10
41437;DHT22;27178;49.460;10.850;2022-09-03T03:01:35;19.00;52.20
41437;DHT22;27178;49.460;10.850;2022-09-03T03:04:07;19.00;52.30
41437;DHT22;27178;49.460;10.850;2022-09-03T03:06:37;19.00;52.40
41437;DHT22;27178;49.460;10.850;2022-09-03T03:09:05;18.90;52.60
41437;DHT22;27178;49.460;10.850;2022-09-03T03:11:34;18.90;52.70
41437;DHT22;27178;49.460;10.850;2022-09-03T03:14:04;18.90;52.80
41437;DHT22;27178;49.460;10.850;2022-09-03T03:16:33;18.80;52.90
41437;DHT22;27178;49.460;10.850;2022-09-03T03:19:02;18.80;53.00
41437;DHT22;27178;49.460;10.850;2022-09-03T03:21:30;18.80;53.10
41437;DHT22;27178;49.460;10.850;2022-09-03T03:24:02;18.70;53.20
41437;DHT22;27178;49.460;10.850;2022-09-03T03:26:31;18.70;53.40
41437;DHT22;27178;49.460;10.850;2022-09-03T03:29:00;18.70;53.40
41437;DHT22;27178;49.460;10.850;2022-09-03T03:31:31;18.70;53.60
41437;DHT22;27178;49.460;10.850;2022-09-03T03:34:01;18.60;53.50
41437;DHT22;27178;49.460;10.850;2022-09-03T03:36:31;18.60;53.70
41437;DHT22;27178;49.460;10.850;2022-09-03T03:39:02;18.60;53.90
41437;DHT22;27178;49.460;10.850;2022-09-03T03:41:32;18.60;54.00
41437;DHT22;27178;49.460;10.850;2022-09-03T03:44:02;18.50;54.00
41437;DHT22;27178;49.460;10.850;2022-09-03T03:46:32;18.50;54.00
41437;DHT22;27178;49.460;10.850;2022-09-03T03:49:01;18.40;54.10
41437;DHT22;27178;49.460;10.850;2022-09-03T03:51:30;18.40;54.20
41437;DHT22;27178;49.460;10.850;2022-09-03T03:53:59;18.40;54.30
41437;DHT22;27178;49.460;10.850;2022-09-03T03:56:33;18.30;54.40
41437;DHT22;27178;49.460;10.850;2022-09-03T03:59:02;18.30;54.50
41437;DHT22;27178;49.460;10.850;2022-09-03T04:01:31;18.30;54.50
41437;DHT22;27178;49.460;10.850;2022-09-03T04:04:00;18.20;54.40
41437;DHT22;27178;49.460;10.850;2022-09-03T04:06:28;18.20;54.50
41437;DHT22;27178;49.460;10.850;2022-09-03T04:08:56;18.20;54.60
41437;DHT22;27178;49.460;10.850;2022-09-03T04:11:25;18.20;54.70
41437;DHT22;27178;49.460;10.850;2022-09-03T04:13:55;18.20;54.80
41437;DHT22;27178;49.460;10.850;2022-09-03T04:16:25;18.10;54.90
41437;DHT22;27178;49.460;10.850;2022-09-03T04:18:55;18.10;54.90
41437;DHT22;27178;49.460;10.850;2022-09-03T04:21:25;18.10;55.00
41437;DHT22;27178;49.460;10.850;2022-09-03T04:23:55;18.10;55.00
41437;DHT22;27178;49.460;10.850;2022-09-03T04:26:25;18.10;55.60
41437;DHT22;27178;49.460;10.850;2022-09-03T04:28:59;18.10;55.00
41437;DHT22;27178;49.460;10.850;2022-09-03T04:31:28;18.10;55.10
41437;DHT22;27178;49.460;10.850;2022-09-03T04:33:57;18.10;55.10
41437;DHT22;27178;49.460;10.850;2022-09-03T04:36:27;18.00;55.10
41437;DHT22;27178;49.460;10.850;2022-09-03T04:38:58;18.00;55.00
41437;DHT22;27178;49.460;10.850;2022-09-03T04:41:29;18.00;55.10
41437;DHT22;27178;49.460;10.850;2022-09-03T04:43:58;18.00;55.30
41437;DHT22;27178;49.460;10.850;2022-09-03T04:46:28;18.00;55.40
41437;DHT22;27178;49.460;10.850;2022-09-03T04:49:00;18.00;55.60
41437;DHT22;27178;49.460;10.850;2022-09-03T04:51:29;18.00;55.50
41437;DHT22;27178;49.460;10.850;2022-09-03T04:53:59;18.00;55.40
41437;DHT22;27178;49.460;10.850;2022-09-03T04:56:29;18.00;55.60
41437;DHT22;27178;49.460;10.850;2022-09-03T04:59:00;18.00;55.70
41437;DHT22;27178;49.460;10.850;2022-09-03T05:01:30;18.00;55.80
41437;DHT22;27178;49.460;10.850;2022-09-03T05:04:00;18.80;56.10
41437;DHT22;27178;49.460;10.850;2022-09-03T05:06:29;18.00;55.70
41437;DHT22;27178;49.460;10.850;2022-09-03T05:08:59;18.00;55.90
41437;DHT22;27178;49.460;10.850;2022-09-03T05:11:28;18.00;55.90
41437;DHT22;27178;49.460;10.850;2022-09-03T05:13:59;18.00;55.80
41437;DHT22;27178;49.460;10.850;2022-09-03T05:16:27;18.00;55.80
41437;DHT22;27178;49.460;10.850;2022-09-03T05:18:58;18.00;55.90
41437;DHT22;27178;49.460;10.850;2022-09-03T05:21:28;18.00;56.00
41437;DHT22;27178;49.460;10.850;2022-09-03T05:23:58;18.00;55.90
41437;DHT22;27178;49.460;10.850;2022-09-03T05:26:29;18.00;56.00
41437;DHT22;27178;49.460;10.850;2022-09-03T05:29:00;18.00;56.80
41437;DHT22;27178;49.460;10.850;2022-09-03T05:31:29;18.00;56.20
41437;DHT22;27178;49.460;10.850;2022-09-03T05:34:00;18.00;56.20
41437;DHT22;27178;49.460;10.850;2022-09-03T05:36:30;18.00;56.20
41437;DHT22;27178;49.460;10.850;2022-09-03T05:39:00;18.00;56.30
41437;DHT22;27178;49.460;10.850;2022-09-03T05:41:28;18.00;56.30
41437;DHT22;27178;49.460;10.850;2022-09-03T05:44:01;18.00;56.40
41437;DHT22;27178;49.460;10.850;2022-09-03T05:46:30;18.00;56.70
41437;DHT22;27178;49.460;10.850;2022-09-03T05:49:00;18.10;56.80
41437;DHT22;27178;49.460;10.850;2022-09-03T05:51:30;18.10;56.90
41437;DHT22;27178;49.460;10.850;2022-09-03T05:53:59;18.10;57.20
41437;DHT22;27178;49.460;10.850;2022-09-03T05:56:30;18.10;57.20
41437;DHT22;27178;49.460;10.850;2022-09-03T05:59:02;18.10;57.40
41437;DHT22;27178;49.460;10.850;2022-09-03T06:01:33;18.20;57.40
41437;DHT22;27178;49.460;10.850;2022-09-03T06:04:03;18.20;57.40
41437;DHT22;27178;49.460;10.850;2022-09-03T06:06:34;18.20;57.50
41437;DHT22;27178;49.460;10.850;2022-09-03T06:09:05;18.30;57.70
41437;DHT22;27178;49.460;10.850;2022-09-03T06:11:35;18.30;57.40
41437;DHT22;27178;49.460;10.850;2022-09-03T06:14:07;18.30;57.30
41437;DHT22;27178;49.460;10.850;2022-09-03T06:16:36;18.40;57.30
41437;DHT22;27178;49.460;10.850;2022-09-03T06:19:07;18.50;57.90
41437;DHT22;27178;49.460;10.850;2022-09-03T06:21:36;18.50;57.00
41437;DHT22;27178;49.460;10.850;2022-09-03T06:24:08;18.60;56.60
41437;DHT22;27178;49.460;10.850;2022-09-03T06:26:38;18.60;56.70
41437;DHT22;27178;49.460;10.850;2022-09-03T06:29:10;18.70;56.70
41437;DHT22;27178;49.460;10.850;2022-09-03T06:31:38;18.80;56.60
41437;DHT22;27178;49.460;10.850;2022-09-03T06:34:07;18.80;56.40
41437;DHT22;27178;49.460;10.850;2022-09-03T06:36:35;18.80;56.30
41437;DHT22;27178;49.460;10.850;2022-09-03T06:39:03;18.90;56.40
41437;DHT22;27178;49.460;10.850;2022-09-03T06:41:32;19.00;56.50
41437;DHT22;27178;49.460;10.850;2022-09-03T06:44:03;19.10;56.20
41437;DHT22;27178;49.460;10.850;2022-09-03T06:46:34;19.10;56.30
41437;DHT22;27178;49.460;10.850;2022-09-03T06:49:05;19.20;56.20
41437;DHT22;27178;49.460;10.850;2022-09-03T06:51:35;19.30;56.30
41437;DHT22;27178;49.460;10.850;2022-09-03T06:54:05;19.40;56.30
41437;DHT22;27178;49.460;10.850;2022-09-03T06:56:34;19.40;56.00
41437;DHT22;27178;49.460;10.850;2022-09-03T06:59:07;19.50;55.90
41437;DHT22;27178;49.460;10.850;2022-09-03T07:01:38;19.60;55.70
41437;DHT22;27178;49.460;10.850;2022-09-03T07:04:11;19.70;55.80
41437;DHT22;27178;49.460;10.850;2022-09-03T07:06:42;19.70;55.50
41437;DHT22;27178;49.460;10.850;2022-09-03T07:09:12;19.80;55.40
41437;DHT22;27178;49.460;10.850;2022-09-03T07:11:41;19.80;55.30
41437;DHT22;27178;49.460;10.850;2022-09-03T07:14:15;19.90;55.30
41437;DHT22;27178;49.460;10.850;2022-09-03T07:16:46;19.90;55.20
41437;DHT22;27178;49.460;10.850;2022-09-03T07:19:15;20.00;55.10
41437;DHT22;27178;49.460;10.850;2022-09-03T07:21:44;20.00;55.10
41437;DHT22;27178;49.460;10.850;2022-09-03T07:24:17;20.00;55.00
41437;DHT22;27178;49.460;10.850;2022-09-03T07:26:46;20.00;55.00
41437;DHT22;27178;49.460;10.850;2022-09-03T07:29:15;20.00;55.20
41437;DHT22;27178;49.460;10.850;2022-09-03T07:31:49;20.10;55.20
41437;DHT22;27178;49.460;10.850;2022-09-03T07:34:19;20.10;55.40
41437;DHT22;27178;49.460;10.850;2022-09-03T07:36:51;20.10;55.30
41437;DHT22;27178;49.460;10.850;2022-09-03T07:39:19;20.20;55.10
41437;DHT22;27178;49.460;10.850;2022-09-03T07:41:48;20.20;55.20
41437;DHT22;27178;49.460;10.850;2022-09-03T07:44:17;20.20;55.10
41437;DHT22;27178;49.460;10.850;2022-09-03T07:46:47;20.30;55.10
41437;DHT22;27178;49.460;10.850;2022-09-03T07:49:18;20.30;55.00
41437;DHT22;27178;49.460;10.850;2022-09-03T07:51:48;20.40;55.00
41437;DHT22;27178;49.460;10.850;2022-09-03T07:54:19;20.40;54.80
41437;DHT22;27178;49.460;10.850;2022-09-03T07:56:49;20.50;54.80
41437;DHT22;27178;49.460;10.850;2022-09-03T07:59:17;20.50;54.60
41437;DHT22;27178;49.460;10.850;2022-09-03T08:01:48;20.60;54.50
41437;DHT22;27178;49.460;10.850;2022-09-03T08:04:18;20.70;54.50
41437;DHT22;27178;49.460;10.850;2022-09-03T08:06:47;20.70;54.40
41437;DHT22;27178;49.460;10.850;2022-09-03T08:09:16;20.80;54.40
41437;DHT22;27178;49.460;10.850;2022-09-03T08:11:45;20.90;54.30
41437;DHT22;27178;49.460;10.850;2022-09-03T08:14:13;20.90;54.20
41437;DHT22;27178;49.460;10.850;2022-09-03T08:16:43;21.00;54.10
41437;DHT22;27178;49.460;10.850;2022-09-03T08:19:15;21.10;54.20
41437;DHT22;27178;49.460;10.850;2022-09-03T08:21:44;21.20;54.30
41437;DHT22;27178;49.460;10.850;2022-09-03T08:24:14;21.20;54.20
41437;DHT22;27178;49.460;10.850;2022-09-03T08:26:43;21.30;53.80
41437;DHT22;27178;49.460;10.850;2022-09-03T08:29:17;21.30;53.80
41437;DHT22;27178;49.460;10.850;2022-09-03T08:31:46;21.40;53.70
41437;DHT22;27178;49.460;10.850;2022-09-03T08:34:16;21.50;53.70
41437;DHT22;27178;49.460;10.850;2022-09-03T08:36:45;21.50;53.60
41437;DHT22;27178;49.460;10.850;2022-09-03T08:39:14;21.60;53.60
41437;DHT22;27178;49.460;10.850;2022-09-03T08:44:44;21.70;53.30
41437;DHT22;27178;49.460;10.850;2022-09-03T08:47:17;21.70;53.20
41437;DHT22;27178;49.460;10.850;2022-09-03T08:49:51;21.80;53.10
41437;DHT22;27178;49.460;10.850;2022-09-03T08:52:27;21.80;53.20
41437;DHT22;27178;49.460;10.850;2022-09-03T08:55:01;21.90;53.20
41437;DHT22;27178;49.460;10.850;2022-09-03T08:57:35;21.90;53.10
41437;DHT22;27178;49.460;10.850;2022-09-03T09:00:08;21.90;53.00
41437;DHT22;27178;49.460;10.850;2022-09-03T09:02:47;22.00;52.90
41437;DHT22;27178;49.460;10.850;2022-09-03T09:05:27;22.00;52.80
41437;DHT22;27178;49.460;10.850;2022-09-03T09:08:03;22.00;52.90
41437;DHT22;27178;49.460;10.850;2022-09-03T09:10:40;22.10;52.90
41437;DHT22;27178;49.460;10.850;2022-09-03T09:13:19;22.10;52.90
41437;DHT22;27178;49.460;10.850;2022-09-03T09:16:01;22.10;52.80
41437;DHT22;27178;49.460;10.850;2022-09-03T09:18:42;22.10;53.40
41437;DHT22;27178;49.460;10.850;2022-09-03T09:21:14;22.20;52.60
41437;DHT22;27178;49.460;10.850;2022-09-03T09:23:49;22.20;52.50
41437;DHT22;27178;49.460;10.850;2022-09-03T09:26:19;22.20;52.50
41437;DHT22;27178;49.460;10.850;2022-09-03T09:28:52;22.20;52.60
41437;DHT22;27178;49.460;10.850;2022-09-03T09:31:23;22.30;52.60
41437;DHT22;27178;49.460;10.850;2022-09-03T09:33:52;22.40;52.20
41437;DHT22;27178;49.460;10.850;2022-09-03T09:36:22;22.30;52.70
41437;DHT22;27178;49.460;10.850;2022-09-03T09:38:51;22.40;52.70
41437;DHT22;27178;49.460;10.850;2022-09-03T09:41:21;22.40;52.70
41437;DHT22;27178;49.460;10.850;2022-09-03T09:44:00;22.40;52.70
41437;DHT22;27178;49.460;10.850;2022-09-03T09:46:32;22.50;52.70
41437;DHT22;27178;49.460;10.850;2022-09-03T09:49:17;22.50;52.60
41437;DHT22;27178;49.460;10.850;2022-09-03T09:52:00;22.60;52.60
41437;DHT22;27178;49.460;10.850;2022-09-03T09:54:29;22.70;52.50
41437;DHT22;27178;49.460;10.850;2022-09-03T09:56:58;22.70;52.40
41437;DHT22;27178;49.460;10.850;2022-09-03T09:59:28;22.70;52.20
41437;DHT22;27178;49.460;10.850;2022-09-03T10:02:10;22.80;52.40
41437;DHT22;27178;49.460;10.850;2022-09-03T10:04:48;22.80;52.30
41437;DHT22;27178;49.460;10.850;2022-09-03T10:07:28;22.90;52.40
41437;DHT22;27178;49.460;10.850;2022-09-03T10:10:02;23.00;52.20
41437;DHT22;27178;49.460;10.850;2022-09-03T10:12:35;23.00;52.20
41437;DHT22;27178;49.460;10.850;2022-09-03T10:15:17;23.10;52.10
41437;DHT22;27178;49.460;10.850;2022-09-03T10:17:59;23.20;52.00
41437;DHT22;27178;49.460;10.850;2022-09-03T10:20:33;23.30;52.00
41437;DHT22;27178;49.460;10.850;2022-09-03T10:23:12;23.30;51.90
41437;DHT22;27178;49.460;10.850;2022-09-03T10:25:56;23.40;52.20
41437;DHT22;27178;49.460;10.850;2022-09-03T10:28:30;23.50;51.90
41437;DHT22;27178;49.460;10.850;2022-09-03T10:31:31;23.50;51.90
41437;DHT22;27178;49.460;10.850;2022-09-03T10:34:08;23.50;51.90
41437;DHT22;27178;49.460;10.850;2022-09-03T10:36:45;23.60;52.00
41437;DHT22;27178;49.460;10.850;2022-09-03T10:39:21;23.70;52.10
41437;DHT22;27178;49.460;10.850;2022-09-03T10:41:58;23.80;51.90
41437;DHT22;27178;49.460;10.850;2022-09-03T10:44:48;23.80;51.70
41437;DHT22;27178;49.460;10.850;2022-09-03T10:50:18;24.00;51.80
41437;DHT22;27178;49.460;10.850;2022-09-03T10:53:03;24.00;51.80
41437;DHT22;27178;49.460;10.850;2022-09-03T10:55:46;24.10;51.80
41437;DHT22;27178;49.460;10.850;2022-09-03T10:58:28;24.20;51.70
41437;DHT22;27178;49.460;10.850;2022-09-03T11:01:10;24.30;51.70
41437;DHT22;27178;49.460;10.850;2022-09-03T11:03:47;24.30;51.50
41437;DHT22;27178;49.460;10.850;2022-09-03T11:06:19;24.40;51.60
41437;DHT22;27178;49.460;10.850;2022-09-03T11:08:55;24.40;51.50
41437;DHT22;27178;49.460;10.850;2022-09-03T11:11:36;24.50;51.30
41437;DHT22;27178;49.460;10.850;2022-09-03T11:14:09;24.50;51.30
41437;DHT22;27178;49.460;10.850;2022-09-03T11:16:43;24.50;51.40
41437;DHT22;27178;49.460;10.850;2022-09-03T11:19:16;24.50;51.20
41437;DHT22;27178;49.460;10.850;2022-09-03T11:21:47;24.50;51.30
41437;DHT22;27178;49.460;10.850;2022-09-03T11:24:21;24.60;51.80
41437;DHT22;27178;49.460;10.850;2022-09-03T11:26:54;24.60;51.80
41437;DHT22;27178;49.460;10.850;2022-09-03T11:29:30;24.70;51.70
41437;DHT22;27178;49.460;10.850;2022-09-03T11:32:07;24.80;51.70
41437;DHT22;27178;49.460;10.850;2022-09-03T11:34:45;24.90;51.50
41437;DHT22;27178;49.460;10.850;2022-09-03T11:37:20;25.10;51.40
41437;DHT22;27178;49.460;10.850;2022-09-03T11:39:56;25.20;51.50
41437;DHT22;27178;49.460;10.850;2022-09-03T11:42:30;25.30;51.50
41437;DHT22;27178;49.460;10.850;2022-09-03T11:45:12;25.50;51.30
41437;DHT22;27178;49.460;10.850;2022-09-03T11:47:42;25.70;51.30
41437;DHT22;27178;49.460;10.850;2022-09-03T11:50:19;25.90;51.20
41437;DHT22;27178;49.460;10.850;2022-09-03T11:52:49;26.10;50.80
41437;DHT22;27178;49.460;10.850;2022-09-03T11:55:29;26.20;50.70
41437;DHT22;27178;49.460;10.850;2022-09-03T11:58:19;26.40;50.00
41437;DHT22;27178;49.460;10.850;2022-09-03T12:00:50;26.50;50.00
41437;DHT22;27178;49.460;10.850;2022-09-03T12:03:24;26.50;50.20
41437;DHT22;27178;49.460;10.850;2022-09-03T12:06:18;26.60;49.90
41437;DHT22;27178;49.460;10.850;2022-09-03T12:09:06;26.60;49.80
41437;DHT22;27178;49.460;10.850;2022-09-03T12:11:47;26.70;49.70
41437;DHT22;27178;49.460;10.850;2022-09-03T12:14:24;26.70;49.80
41437;DHT22;27178;49.460;10.850;2022-09-03T12:17:15;26.70;50.00
41437;DHT22;27178;49.460;10.850;2022-09-03T12:19:50;26.80;49.50
41437;DHT22;27178;49.460;10.850;2022-09-03T12:22:20;26.80;49.90
41437;DHT22;27178;49.460;10.850;2022-09-03T12:24:49;26.90;49.90
41437;DHT22;27178;49.460;10.850;2022-09-03T12:27:20;27.00;49.90
41437;DHT22;27178;49.460;10.850;2022-09-03T12:29:53;27.00;49.70
41437;DHT22;27178;49.460;10.850;2022-09-03T12:32:25;27.10;49.70
41437;DHT22;27178;49.460;10.850;2022-09-03T12:34:54;27.10;49.50
41437;DHT22;27178;49.460;10.850;2022-09-03T12:37:24;27.10;49.40
41437;DHT22;27178;49.460;10.850;2022-09-03T12:40:18;27.10;49.50
41437;DHT22;27178;49.460;10.850;2022-09-03T12:42:47;27.10;49.60
41437;DHT22;27178;49.460;10.850;2022-09-03T12:45:20;27.10;49.60
41437;DHT22;27178;49.460;10.850;2022-09-03T12:47:50;27.20;49.70
41437;DHT22;27178;49.460;10.850;2022-09-03T12:50:20;27.40;50.00
41437;DHT22;27178;49.460;10.850;2022-09-03T12:52:51;27.50;49.60
41437;DHT22;27178;49.460;10.850;2022-09-03T12:55:27;27.60;49.30
41437;DHT22;27178;49.460;10.850;2022-09-03T12:58:04;27.80;49.00
41437;DHT22;27178;49.460;10.850;2022-09-03T13:00:43;27.80;48.80
41437;DHT22;27178;49.460;10.850;2022-09-03T13:03:16;27.80;48.90
41437;DHT22;27178;49.460;10.850;2022-09-03T13:05:49;27.90;48.90
41437;DHT22;27178;49.460;10.850;2022-09-03T13:08:21;27.90;48.80
41437;DHT22;27178;49.460;10.850;2022-09-03T13:10:52;27.80;48.60
41437;DHT22;27178;49.460;10.850;2022-09-03T13:13:23;27.70;48.40
41437;DHT22;27178;49.460;10.850;2022-09-03T13:16:15;27.70;49.10
41437;DHT22;27178;49.460;10.850;2022-09-03T13:18:54;27.60;48.30
41437;DHT22;27178;49.460;10.850;2022-09-03T13:21:38;27.50;48.50
41437;DHT22;27178;49.460;10.850;2022-09-03T13:24:27;27.40;48.60
41437;DHT22;27178;49.460;10.850;2022-09-03T13:27:11;27.30;48.60
41437;DHT22;27178;49.460;10.850;2022-09-03T13:29:57;27.30;48.80
41437;DHT22;27178;49.460;10.850;2022-09-03T13:32:50;27.30;48.70
41437;DHT22;27178;49.460;10.850;2022-09-03T13:35:29;27.10;48.80
41437;DHT22;27178;49.460;10.850;2022-09-03T13:38:07;27.10;49.00
41437;DHT22;27178;49.460;10.850;2022-09-03T13:40:44;27.10;49.10
41437;DHT22;27178;49.460;10.850;2022-09-03T13:43:29;27.00;49.30
41437;DHT22;27178;49.460;10.850;2022-09-03T13:46:05;27.00;49.60
41437;DHT22;27178;49.460;10.850;2022-09-03T13:48:38;26.90;49.40
41437;DHT22;27178;49.460;10.850;2022-09-03T13:51:27;26.90;49.70
41437;DHT22;27178;49.460;10.850;2022-09-03T13:54:06;26.80;49.50
41437;DHT22;27178;49.460;10.850;2022-09-03T13:56:52;26.80;49.70
41437;DHT22;27178;49.460;10.850;2022-09-03T13:59:29;26.80;49.80
41437;DHT22;27178;49.460;10.850;2022-09-03T14:02:10;26.80;49.90
41437;DHT22;27178;49.460;10.850;2022-09-03T14:04:51;26.80;50.00
41437;DHT22;27178;49.460;10.850;2022-09-03T14:07:26;26.80;50.10
41437;DHT22;27178;49.460;10.850;2022-09-03T14:10:03;26.80;50.00
41437;DHT22;27178;49.460;10.850;2022-09-03T14:12:40;26.80;50.00
41437;DHT22;27178;49.460;10.850;2022-09-03T14:15:17;26.80;50.00
41437;DHT22;27178;49.460;10.850;2022-09-03T14:17:51;26.70;50.00
41437;DHT22;27178;49.460;10.850;2022-09-03T14:20:27;26.70;49.90
41437;DHT22;27178;49.460;10.850;2022-09-03T14:23:02;26.70;49.90
41437;DHT22;27178;49.460;10.850;2022-09-03T14:25:30;26.70;50.00
41437;DHT22;27178;49.460;10.850;2022-09-03T14:28:26;26.70;50.00
41437;DHT22;27178;49.460;10.850;2022-09-03T14:31:03;26.70;50.10
41437;DHT22;27178;49.460;10.850;2022-09-03T14:33:40;26.70;50.10
41437;DHT22;27178;49.460;10.850;2022-09-03T14:36:21;26.60;50.20
41437;DHT22;27178;49.460;10.850;2022-09-03T14:39:04;26.60;50.20
41437;DHT22;27178;49.460;10.850;2022-09-03T14:42:10;26.60;50.30
41437;DHT22;27178;49.460;10.850;2022-09-03T14:45:11;26.60;50.20
41437;DHT22;27178;49.460;10.850;2022-09-03T14:47:51;26.50;50.30
41437;DHT22;27178;49.460;10.850;2022-09-03T14:50:35;26.50;50.40
41437;DHT22;27178;49.460;10.850;2022-09-03T14:53:23;26.50;50.50
41437;DHT22;27178;49.460;10.850;2022-09-03T14:56:23;26.40;50.50
41437;DHT22;27178;49.460;10.850;2022-09-03T14:59:23;26.40;50.70
41437;DHT22;27178;49.460;10.850;2022-09-03T15:02:21;26.40;51.20
41437;DHT22;27178;49.460;10.850;2022-09-03T15:05:06;26.40;51.20
41437;DHT22;27178;49.460;10.850;2022-09-03T15:07:42;26.30;51.40
41437;DHT22;27178;49.460;10.850;2022-09-03T15:10:20;26.30;51.40
41437;DHT22;27178;49.460;10.850;2022-09-03T15:12:57;26.20;51.40
41437;DHT22;27178;49.460;10.850;2022-09-03T15:15:31;26.20;51.50
41437;DHT22;27178;49.460;10.850;2022-09-03T15:18:12;26.10;51.50
41437;DHT22;27178;49.460;10.850;2022-09-03T15:20:48;26.10;51.70
41437;DHT22;27178;49.460;10.850;2022-09-03T15:23:38;26.00;51.90
41437;DHT22;27178;49.460;10.850;2022-09-03T15:26:33;26.00;51.90
41437;DHT22;27178;49.460;10.850;2022-09-03T15:29:19;26.00;52.20
41437;DHT22;27178;49.460;10.850;2022-09-03T15:32:00;25.90;52.10
41437;DHT22;27178;49.460;10.850;2022-09-03T15:34:42;25.90;52.70
41437;DHT22;27178;49.460;10.850;2022-09-03T15:37:18;25.90;52.20
41437;DHT22;27178;49.460;10.850;2022-09-03T15:39:58;25.80;52.20
41437;DHT22;27178;49.460;10.850;2022-09-03T15:42:30;25.80;52.50
41437;DHT22;27178;49.460;10.850;2022-09-03T15:45:05;25.80;52.70
41437;DHT22;27178;49.460;10.850;2022-09-03T15:47:39;25.70;52.90
41437;DHT22;27178;49.460;10.850;2022-09-03T15:50:28;25.70;53.50
41437;DHT22;27178;49.460;10.850;2022-09-03T15:53:02;25.60;55.20
41437;DHT22;27178;49.460;10.850;2022-09-03T15:55:34;25.50;55.50
41437;DHT22;27178;49.460;10.850;2022-09-03T15:58:10;25.40;55.40
41437;DHT22;27178;49.460;10.850;2022-09-03T16:00:54;25.20;56.70
41437;DHT22;27178;49.460;10.850;2022-09-03T16:03:37;25.10;57.50
41437;DHT22;27178;49.460;10.850;2022-09-03T16:06:20;24.90;59.60
41437;DHT22;27178;49.460;10.850;2022-09-03T16:08:54;24.60;59.50
41437;DHT22;27178;49.460;10.850;2022-09-03T16:11:34;24.40;59.30
41437;DHT22;27178;49.460;10.850;2022-09-03T16:14:09;24.20;61.10
41437;DHT22;27178;49.460;10.850;2022-09-03T16:16:53;24.00;61.50
41437;DHT22;27178;49.460;10.850;2022-09-03T16:19:29;23.80;62.50